Time;durP1;ratioP1;P1;durP2;ratioP2;P2;SDS_P1;SDS_P2;PMS_P1;PMS_P2;Temp;Humidity;BMP_temperature;BMP_pressure;BME280_temperature;BME280_humidity;BME280_pressure;Samples;Min_cycle;Max_cycle;Signal;HPM_P1;HPM_P2
2024/01/16 00:00:24;;;;;;;5.03;2.83;;;-0.60;55.30;;;;;;5075533;28;20237;-79
2024/01/16 00:02:51;;;;;;;5.25;1.90;;;-0.60;55.00;;;;;;5067768;28;20322;-79
2024/01/16 00:05:19;;;;;;;4.82;2.45;;;-0.60;54.80;;;;;;5075609;28;20712;-79
2024/01/16 00:07:46;;;;;;;4.40;2.60;;;-0.60;54.60;;;;;;5074970;28;20269;-79
2024/01/16 00:10:14;;;;;;;5.80;2.60;;;-0.60;54.20;;;;;;5075489;28;20210;-79
2024/01/16 00:12:42;;;;;;;4.80;2.70;;;-0.60;53.80;;;;;;5075531;28;20248;-79
2024/01/16 00:15:09;;;;;;;4.57;2.30;;;-0.60;53.80;;;;;;5075659;28;20268;-79
2024/01/16 00:17:36;;;;;;;5.30;2.53;;;-0.60;53.90;;;;;;5075746;28;20206;-79
2024/01/16 00:20:05;;;;;;;4.57;2.42;;;-0.60;53.90;;;;;;5075482;28;20273;-79
2024/01/16 00:22:33;;;;;;;5.03;2.20;;;-0.70;53.90;;;;;;5074987;28;20646;-79
2024/01/16 00:25:00;;;;;;;6.88;2.28;;;-0.70;53.90;;;;;;5075537;28;20210;-79
2024/01/16 00:27:32;;;;;;;6.47;2.67;;;-0.70;53.80;;;;;;5075473;28;20194;-79
2024/01/16 00:29:59;;;;;;;5.35;2.88;;;-0.80;53.70;;;;;;5075394;28;20224;-79
2024/01/16 00:32:29;;;;;;;4.15;2.45;;;-0.90;53.90;;;;;;5075178;28;20253;-79
2024/01/16 00:34:56;;;;;;;4.65;2.17;;;-1.00;54.00;;;;;;5075383;28;20210;-79
2024/01/16 00:37:23;;;;;;;3.63;2.10;;;-1.10;54.10;;;;;;5075158;28;20217;-79
2024/01/16 00:39:51;;;;;;;5.88;2.75;;;-1.10;54.40;;;;;;5075001;28;20271;-79
2024/01/16 00:42:18;;;;;;;6.10;2.67;;;-1.20;54.50;;;;;;5074571;28;20194;-79
2024/01/16 00:44:44;;;;;;;4.85;2.88;;;-1.20;54.70;;;;;;5073932;28;20590;-79
2024/01/16 00:47:11;;;;;;;5.65;3.15;;;-1.20;54.90;;;;;;5074873;28;20217;-79
2024/01/16 00:49:39;;;;;;;5.25;3.03;;;-1.30;54.80;;;;;;5075230;28;20194;-79
2024/01/16 00:52:06;;;;;;;4.93;3.00;;;-1.30;54.90;;;;;;5074468;28;20293;-79
2024/01/16 00:54:33;;;;;;;6.00;3.10;;;-1.30;55.00;;;;;;5074362;28;20253;-78
2024/01/16 00:57:02;;;;;;;4.85;2.70;;;-1.30;55.00;;;;;;5073943;28;20190;-79
2024/01/16 00:59:29;;;;;;;4.28;2.55;;;-1.40;55.00;;;;;;5074741;28;20257;-79
2024/01/16 01:01:58;;;;;;;4.07;2.42;;;-1.40;55.30;;;;;;5073187;28;20198;-79
2024/01/16 01:04:25;;;;;;;3.55;2.05;;;-1.40;55.30;;;;;;5074445;28;20265;-79
2024/01/16 01:06:52;;;;;;;5.40;3.00;;;-1.50;55.40;;;;;;5074036;28;20298;-79
2024/01/16 01:09:19;;;;;;;5.85;3.00;;;-1.50;55.60;;;;;;5073864;28;20178;-79
2024/01/16 01:11:48;;;;;;;5.10;2.95;;;-1.60;56.00;;;;;;5073387;28;20214;-79
2024/01/16 01:14:17;;;;;;;5.50;2.63;;;-1.60;56.20;;;;;;5074220;28;20205;-78
2024/01/16 01:16:44;;;;;;;4.53;2.83;;;-1.50;56.20;;;;;;5074033;28;20309;-79
2024/01/16 01:19:17;;;;;;;4.70;2.63;;;-1.60;56.10;;;;;;5073678;28;20530;-80
2024/01/16 01:21:44;;;;;;;4.93;3.50;;;-1.70;56.00;;;;;;5073972;28;20277;-78
2024/01/16 01:24:12;;;;;;;4.05;2.33;;;-1.80;55.50;;;;;;5072983;28;20520;-80
2024/01/16 01:26:44;;;;;;;5.90;2.72;;;-1.80;55.40;;;;;;5072644;28;20175;-80
2024/01/16 01:29:11;;;;;;;4.90;2.78;;;-1.90;55.50;;;;;;5073806;28;20185;-80
2024/01/16 01:31:48;;;;;;;14.27;4.43;;;-1.90;55.90;;;;;;5072940;28;20299;-79
2024/01/16 01:34:16;;;;;;;9.73;2.88;;;-2.00;56.20;;;;;;5074102;28;20178;-80
2024/01/16 01:36:43;;;;;;;7.85;2.80;;;-2.00;56.30;;;;;;5072777;28;20182;-79
2024/01/16 01:39:12;;;;;;;6.55;3.55;;;-2.00;56.40;;;;;;5073305;28;20268;-75
2024/01/16 01:41:39;;;;;;;4.15;2.95;;;-2.00;56.50;;;;;;5073047;28;20190;-78
2024/01/16 01:44:07;;;;;;;4.55;2.65;;;-2.00;56.40;;;;;;5073264;28;20175;-80
2024/01/16 01:46:35;;;;;;;6.35;2.25;;;-1.90;56.20;;;;;;5072933;28;20194;-80
2024/01/16 01:49:04;;;;;;;4.05;2.35;;;-1.90;56.10;;;;;;5072566;28;20217;-79
2024/01/16 01:55:40;;;;;;;5.80;2.67;;;-1.80;55.80;;;;;;5072973;28;20599;-80
2024/01/16 01:58:07;;;;;;;5.15;2.70;;;-1.80;55.30;;;;;;5073591;28;20523;-79
2024/01/16 02:00:37;;;;;;;4.32;2.10;;;-1.80;55.20;;;;;;5072038;28;20220;-79
2024/01/16 02:03:06;;;;;;;5.55;2.25;;;-1.90;55.30;;;;;;5073224;28;20193;-80
2024/01/16 02:05:39;;;;;;;6.25;2.72;;;-1.90;55.70;;;;;;5073904;28;20279;-80
2024/01/16 02:08:12;;;;;;;5.50;2.75;;;-2.00;55.90;;;;;;5072795;28;20225;-80
2024/01/16 02:10:50;;;;;;;4.90;2.80;;;-2.10;56.00;;;;;;5072275;28;20190;-80
2024/01/16 02:13:20;;;;;;;5.32;2.40;;;-2.10;56.40;;;;;;5071998;28;20298;-79
2024/01/16 02:15:50;;;;;;;6.45;2.70;;;-2.10;56.40;;;;;;5071248;28;20214;-79
2024/01/16 02:18:26;;;;;;;3.70;2.00;;;-2.10;56.30;;;;;;5072173;28;20247;-80
2024/01/16 02:21:01;;;;;;;5.15;2.35;;;-2.10;56.50;;;;;;5072807;28;20646;-80
2024/01/16 02:23:30;;;;;;;6.22;2.88;;;-2.20;56.60;;;;;;5073061;28;20269;-80
2024/01/16 02:26:05;;;;;;;7.70;4.03;;;-2.30;56.60;;;;;;5084640;28;20217;-80
2024/01/16 02:28:37;;;;;;;5.05;2.47;;;-2.30;57.00;;;;;;5072747;28;20224;-79
2024/01/16 02:31:05;;;;;;;5.20;2.65;;;-2.30;57.10;;;;;;5062641;28;20202;-80
2024/01/16 02:33:38;;;;;;;4.90;2.15;;;-2.30;57.20;;;;;;5050556;28;20632;-77
2024/01/16 02:36:08;;;;;;;5.63;2.15;;;-2.30;57.00;;;;;;5052134;28;20269;-80
2024/01/16 02:38:37;;;;;;;5.20;3.05;;;-2.30;56.80;;;;;;5052196;28;20214;-80
2024/01/16 02:41:05;;;;;;;5.47;2.70;;;-2.30;57.00;;;;;;5051111;28;20214;-79
2024/01/16 02:43:32;;;;;;;5.50;3.47;;;-2.40;57.00;;;;;;5052312;28;20553;-80
2024/01/16 02:46:17;;;;;;;5.60;2.67;;;-2.40;57.10;;;;;;5052250;28;20615;-80
2024/01/16 02:48:44;;;;;;;5.75;2.88;;;-2.30;57.30;;;;;;5051769;28;20171;-79
2024/01/16 02:51:30;;;;;;;4.32;2.22;;;-2.40;57.30;;;;;;5051118;28;20191;-80
2024/01/16 02:53:59;;;;;;;4.68;2.75;;;-2.40;57.40;;;;;;5051094;28;20678;-80
2024/01/16 02:56:29;;;;;;;5.93;3.10;;;-2.40;57.50;;;;;;5052128;28;20217;-80
2024/01/16 02:58:56;;;;;;;7.05;3.08;;;-2.40;57.30;;;;;;5052163;28;20528;-80
2024/01/16 03:01:24;;;;;;;5.75;3.20;;;-2.50;57.40;;;;;;5052493;28;20175;-80
2024/01/16 03:03:51;;;;;;;4.70;2.63;;;-2.60;57.30;;;;;;5050956;28;20218;-80
2024/01/16 03:06:24;;;;;;;5.07;3.30;;;-2.60;57.70;;;;;;5052823;28;20265;-80
2024/01/16 03:08:54;;;;;;;5.03;2.70;;;-2.70;58.00;;;;;;5055940;28;20222;-78
2024/01/16 03:11:23;;;;;;;6.00;3.35;;;-2.70;58.30;;;;;;5056517;28;20175;-79
2024/01/16 03:13:55;;;;;;;7.30;3.47;;;-2.70;58.50;;;;;;5055756;28;20249;-80
2024/01/16 03:16:22;;;;;;;4.07;2.45;;;-2.70;58.60;;;;;;5056017;28;20219;-80
2024/01/16 03:18:49;;;;;;;4.50;2.20;;;-2.70;58.60;;;;;;5055687;28;20261;-80
2024/01/16 03:21:22;;;;;;;7.03;2.90;;;-2.70;58.70;;;;;;5055101;28;20210;-80
2024/01/16 03:23:49;;;;;;;7.13;2.70;;;-2.70;58.40;;;;;;5055466;28;20288;-80
2024/01/16 03:26:16;;;;;;;5.43;3.08;;;-2.70;57.80;;;;;;5056187;28;20588;-80
2024/01/16 03:28:45;;;;;;;5.18;3.00;;;-2.70;57.70;;;;;;5055056;28;20283;-81
2024/01/16 03:31:21;;;;;;;6.80;3.53;;;-2.70;57.90;;;;;;5056601;28;20256;-77
2024/01/16 03:33:49;;;;;;;5.75;2.88;;;-2.70;58.00;;;;;;5055417;28;20256;-79
2024/01/16 03:36:21;;;;;;;5.63;2.70;;;-2.70;58.00;;;;;;5055368;28;20223;-77
2024/01/16 03:38:48;;;;;;;7.40;2.67;;;-2.70;58.10;;;;;;5038830;28;20724;-80
2024/01/16 03:41:16;;;;;;;6.30;3.33;;;-2.70;58.30;;;;;;5055566;28;20206;-79
2024/01/16 03:44:00;;;;;;;4.75;2.78;;;-2.70;58.30;;;;;;5055297;28;20676;-80
2024/01/16 03:46:27;;;;;;;6.82;2.95;;;-2.70;58.80;;;;;;5054741;28;20218;-79
2024/01/16 03:48:57;;;;;;;5.07;3.10;;;-2.80;58.90;;;;;;5054648;28;20229;-80
2024/01/16 03:51:24;;;;;;;7.50;3.92;;;-2.80;59.10;;;;;;5055676;28;20263;-80
2024/01/16 03:53:54;;;;;;;9.82;3.50;;;-2.80;59.10;;;;;;5054677;28;20731;-80
2024/01/16 03:56:21;;;;;;;7.40;4.30;;;-2.80;59.40;;;;;;5054179;28;20214;-79
2024/01/16 04:02:23;;;;;;;10.13;4.95;;;-2.80;59.30;;;;;;5075178;28;20173;-80
2024/01/16 04:04:50;;;;;;;10.48;5.10;;;-2.80;59.30;;;;;;5075277;28;20177;-79
2024/01/16 04:07:38;;;;;;;8.80;4.88;;;-2.80;59.10;;;;;;5074849;28;20531;-79
2024/01/16 04:10:08;;;;;;;7.88;4.50;;;-2.80;58.70;;;;;;5074098;28;20210;-79
2024/01/16 04:12:35;;;;;;;7.05;3.50;;;-2.90;58.20;;;;;;5057353;28;20690;-80
2024/01/16 04:15:09;;;;;;;9.27;4.57;;;-2.90;58.40;;;;;;5053528;28;20280;-80
2024/01/16 04:17:37;;;;;;;6.65;4.03;;;-2.90;58.30;;;;;;5056649;28;20179;-82
2024/01/16 04:20:11;;;;;;;8.50;3.67;;;-3.00;57.90;;;;;;5074082;28;20527;-82
2024/01/16 04:22:39;;;;;;;7.22;3.30;;;-3.00;57.70;;;;;;5074021;28;20226;-79
2024/01/16 04:25:06;;;;;;;6.10;3.28;;;-3.10;57.70;;;;;;5073812;28;20178;-81
2024/01/16 04:27:36;;;;;;;5.70;3.05;;;-3.20;57.00;;;;;;5073544;28;20677;-81
2024/01/16 04:30:08;;;;;;;7.65;3.92;;;-3.30;57.20;;;;;;5073915;28;20186;-80
2024/01/16 04:32:38;;;;;;;4.88;2.85;;;-3.30;57.60;;;;;;5072467;28;20240;-81
2024/01/16 04:35:05;;;;;;;6.40;4.00;;;-3.50;57.00;;;;;;5074092;28;20182;-81
2024/01/16 04:37:32;;;;;;;6.10;3.45;;;-3.60;56.60;;;;;;5075192;28;20620;-81
2024/01/16 04:40:00;;;;;;;9.15;4.43;;;-3.70;56.90;;;;;;5075168;28;20182;-81
2024/01/16 04:42:28;;;;;;;7.20;4.05;;;-3.70;57.50;;;;;;5075159;28;20585;-82
2024/01/16 04:44:56;;;;;;;8.27;4.50;;;-3.70;57.70;;;;;;5074913;28;20218;-81
2024/01/16 04:47:23;;;;;;;13.85;6.05;;;-3.90;58.20;;;;;;5074602;28;20523;-81
2024/01/16 04:49:51;;;;;;;12.57;4.82;;;-3.90;58.50;;;;;;5075129;28;20190;-76
2024/01/16 04:52:18;;;;;;;9.00;4.47;;;-3.90;58.80;;;;;;5075048;28;20213;-81
2024/01/16 04:54:45;;;;;;;11.77;4.60;;;-4.00;58.90;;;;;;5075257;28;20190;-81
2024/01/16 04:57:12;;;;;;;8.95;4.28;;;-4.00;58.30;;;;;;5073935;28;20206;-80
2024/01/16 04:59:39;;;;;;;8.55;3.38;;;-4.10;58.20;;;;;;5074978;28;20624;-81
2024/01/16 05:02:06;;;;;;;4.10;2.60;;;-4.20;58.50;;;;;;5074704;28;20704;-81
2024/01/16 05:04:33;;;;;;;6.80;3.33;;;-4.20;59.10;;;;;;5074565;28;20186;-81
2024/01/16 05:07:01;;;;;;;8.10;3.28;;;-4.20;59.60;;;;;;5074786;28;20218;-81
2024/01/16 05:09:28;;;;;;;9.02;4.82;;;-4.20;59.80;;;;;;5074845;28;20591;-81
2024/01/16 05:11:55;;;;;;;7.80;3.75;;;-4.20;59.60;;;;;;5073897;28;20213;-81
2024/01/16 05:14:24;;;;;;;8.93;3.75;;;-4.20;59.70;;;;;;5074544;28;20245;-81
2024/01/16 05:16:52;;;;;;;6.43;3.45;;;-4.30;59.50;;;;;;5074811;28;20221;-80
2024/01/16 05:19:19;;;;;;;8.27;4.80;;;-4.30;59.40;;;;;;5074489;28;20197;-82
2024/01/16 05:21:48;;;;;;;6.45;5.03;;;-4.30;60.10;;;;;;5065410;28;20179;-77
2024/01/16 05:24:17;;;;;;;6.80;4.38;;;-4.30;60.00;;;;;;5032693;28;20278;-82
2024/01/16 05:26:44;;;;;;;8.50;5.25;;;-4.30;59.40;;;;;;5033743;28;20246;-82
2024/01/16 05:29:11;;;;;;;8.32;4.70;;;-4.40;59.10;;;;;;5034573;28;20183;-82
2024/01/16 05:31:42;;;;;;;8.10;4.95;;;-4.40;59.70;;;;;;5072264;28;20192;-77
2024/01/16 05:34:09;;;;;;;7.38;4.50;;;-4.40;59.60;;;;;;5066513;28;20606;-82
2024/01/16 05:36:36;;;;;;;7.75;4.00;;;-4.40;59.40;;;;;;5052510;28;20191;-81
2024/01/16 05:39:03;;;;;;;10.13;4.05;;;-4.50;59.20;;;;;;5053545;28;20215;-82
2024/01/16 05:41:35;;;;;;;6.20;4.43;;;-4.50;59.20;;;;;;5052943;28;20305;-82
2024/01/16 05:44:03;;;;;;;9.60;4.45;;;-4.60;59.20;;;;;;5053306;28;20237;-82
2024/01/16 05:46:31;;;;;;;11.35;6.20;;;-4.70;59.90;;;;;;5053381;28;20534;-82
2024/01/16 05:48:59;;;;;;;8.98;5.38;;;-4.70;60.10;;;;;;5053118;28;20629;-82
2024/01/16 05:51:27;;;;;;;9.05;5.53;;;-4.70;60.00;;;;;;5053506;28;20193;-81
2024/01/16 05:53:54;;;;;;;10.02;5.20;;;-4.70;60.50;;;;;;5053108;28;20294;-81
2024/01/16 05:56:21;;;;;;;13.20;5.75;;;-4.70;60.30;;;;;;5053358;28;20269;-82
2024/01/16 05:58:50;;;;;;;8.25;4.25;;;-4.80;59.90;;;;;;5051710;28;20617;-82
2024/01/16 06:01:19;;;;;;;8.60;4.88;;;-4.90;59.80;;;;;;5052926;28;20648;-82
2024/01/16 06:03:48;;;;;;;10.55;7.25;;;-4.90;60.00;;;;;;5053188;28;20190;-81
2024/01/16 06:06:16;;;;;;;11.27;5.60;;;-4.90;60.10;;;;;;5053033;28;20206;-81
2024/01/16 06:08:43;;;;;;;10.15;5.80;;;-4.90;60.20;;;;;;5053422;28;20208;-82
2024/01/16 06:11:14;;;;;;;14.13;6.35;;;-5.00;60.30;;;;;;5053209;28;20194;-82
2024/01/16 06:13:41;;;;;;;9.75;5.68;;;-5.00;60.80;;;;;;5052969;28;20203;-82
2024/01/16 06:16:10;;;;;;;9.77;5.43;;;-5.00;60.20;;;;;;5048749;28;20229;-81
2024/01/16 06:18:38;;;;;;;13.98;7.43;;;-5.00;59.80;;;;;;5052158;28;20186;-81
2024/01/16 06:21:08;;;;;;;24.48;10.23;;;-5.10;59.60;;;;;;5062800;28;20198;-81
2024/01/16 06:23:40;;;;;;;30.60;15.90;;;-5.10;60.00;;;;;;5071489;28;20259;-82
2024/01/16 06:26:25;;;;;;;44.58;20.50;;;-5.10;60.80;;;;;;5072760;28;20182;-81
2024/01/16 06:28:55;;;;;;;20.35;10.88;;;-5.10;61.50;;;;;;5071322;28;20235;-82
2024/01/16 06:31:31;;;;;;;13.05;6.95;;;-5.10;62.20;;;;;;5071654;28;20190;-81
2024/01/16 06:33:58;;;;;;;15.23;7.07;;;-5.00;62.20;;;;;;5052200;28;20238;-81
2024/01/16 06:36:26;;;;;;;13.88;6.03;;;-5.00;62.10;;;;;;5053154;28;20182;-82
2024/01/16 06:38:55;;;;;;;10.23;6.78;;;-5.00;62.20;;;;;;5052321;28;20182;-81
2024/01/16 06:41:23;;;;;;;11.77;5.63;;;-5.00;62.30;;;;;;5051437;28;20183;-81
2024/01/16 06:43:50;;;;;;;8.90;5.13;;;-5.00;62.80;;;;;;5057110;28;20202;-81
2024/01/16 06:46:17;;;;;;;12.40;5.22;;;-5.00;61.90;;;;;;5053604;28;20202;-82
2024/01/16 06:48:45;;;;;;;8.20;4.68;;;-5.00;61.90;;;;;;5056684;28;20606;-81
2024/01/16 06:51:14;;;;;;;10.95;5.55;;;-4.90;62.00;;;;;;5056793;28;20234;-82
2024/01/16 06:53:41;;;;;;;11.40;5.03;;;-4.90;62.30;;;;;;5055848;28;20206;-80
2024/01/16 06:56:08;;;;;;;12.95;6.30;;;-4.80;63.00;;;;;;5076311;28;20221;-79
2024/01/16 06:58:36;;;;;;;15.25;5.93;;;-4.80;63.20;;;;;;5075985;28;20631;-82
2024/01/16 07:01:04;;;;;;;13.25;5.60;;;-4.80;63.10;;;;;;5075947;28;20194;-81
2024/01/16 07:03:31;;;;;;;9.85;5.38;;;-4.80;64.40;;;;;;5075909;28;20233;-82
2024/01/16 07:05:59;;;;;;;10.20;6.00;;;-4.80;63.40;;;;;;5073951;28;20198;-81
2024/01/16 07:08:26;;;;;;;9.05;6.82;;;-4.70;63.70;;;;;;5076243;28;20282;-82
2024/01/16 07:10:53;;;;;;;10.68;5.55;;;-4.60;63.70;;;;;;5075850;28;20235;-82
2024/01/16 07:13:20;;;;;;;12.20;6.15;;;-4.50;63.70;;;;;;5056520;28;20206;-82
2024/01/16 07:15:48;;;;;;;9.10;4.65;;;-4.40;63.60;;;;;;5068014;28;20301;-80
2024/01/16 07:18:18;;;;;;;7.70;5.05;;;-4.30;63.70;;;;;;5049333;28;20629;-76
2024/01/16 07:20:45;;;;;;;11.98;6.68;;;-4.20;63.60;;;;;;5061431;28;20239;-81
2024/01/16 07:23:20;;;;;;;15.32;7.30;;;-4.10;63.00;;;;;;5074526;28;20213;-81
2024/01/16 07:25:47;;;;;;;12.98;8.80;;;-4.10;62.40;;;;;;5056511;28;20202;-82
2024/01/16 07:28:15;;;;;;;15.00;7.97;;;-4.00;62.30;;;;;;5054791;28;20210;-82
2024/01/16 07:30:42;;;;;;;14.07;8.50;;;-3.80;62.40;;;;;;5055513;28;20265;-82
2024/01/16 07:33:09;;;;;;;11.75;6.30;;;-3.50;62.30;;;;;;5055396;28;20624;-82
2024/01/16 07:35:37;;;;;;;10.13;5.80;;;-3.10;62.10;;;;;;5044428;28;20190;-77
2024/01/16 07:38:06;;;;;;;14.63;7.25;;;-2.80;62.30;;;;;;5047342;28;20274;-82
2024/01/16 07:40:34;;;;;;;10.48;5.13;;;-2.40;61.80;;;;;;5055179;28;20218;-82
2024/01/16 07:43:01;;;;;;;9.15;6.13;;;-2.10;61.60;;;;;;5075536;28;20182;-82
2024/01/16 07:45:28;;;;;;;12.73;7.65;;;-1.90;60.90;;;;;;5074897;28;20217;-79
2024/01/16 07:47:55;;;;;;;10.85;6.43;;;-1.80;59.80;;;;;;5074034;28;20221;-77
2024/01/16 07:50:27;;;;;;;35.25;15.18;;;-1.80;59.30;;;;;;5075961;28;20268;-79
2024/01/16 07:52:54;;;;;;;22.40;12.02;;;-1.80;59.30;;;;;;5075655;28;20257;-79
2024/01/16 07:55:21;;;;;;;33.92;19.45;;;-1.70;59.20;;;;;;5076007;28;20300;-80
2024/01/16 07:57:49;;;;;;;24.92;14.18;;;-1.60;58.30;;;;;;5076005;28;20582;-79
2024/01/16 08:00:17;;;;;;;27.42;14.70;;;-1.60;57.80;;;;;;5075696;28;20232;-82
2024/01/16 08:02:44;;;;;;;21.27;13.95;;;-1.50;57.80;;;;;;5075575;28;20186;-82
2024/01/16 08:05:11;;;;;;;27.95;18.98;;;-1.20;57.70;;;;;;5075812;28;20194;-82
2024/01/16 08:07:39;;;;;;;23.85;16.20;;;-1.00;57.10;;;;;;5075513;28;20273;-82
2024/01/16 08:10:06;;;;;;;16.75;11.00;;;-0.90;57.20;;;;;;5075665;28;20610;-82
2024/01/16 08:12:33;;;;;;;17.85;11.07;;;-0.80;57.40;;;;;;5075446;28;20281;-81
2024/01/16 08:15:02;;;;;;;15.98;8.50;;;-0.70;57.60;;;;;;5075093;28;20265;-82
2024/01/16 08:17:29;;;;;;;11.57;7.75;;;-0.50;57.60;;;;;;5075779;28;20281;-81
2024/01/16 08:19:56;;;;;;;14.15;9.60;;;-0.40;57.50;;;;;;5075158;28;20216;-82
2024/01/16 08:22:23;;;;;;;21.98;12.15;;;-0.20;57.50;;;;;;5075609;28;20590;-81
2024/01/16 08:24:50;;;;;;;21.52;11.13;;;-0.10;57.20;;;;;;5067411;28;20281;-81
2024/01/16 08:27:17;;;;;;;21.52;14.30;;;0.00;56.90;;;;;;5075513;28;20605;-79
2024/01/16 08:29:44;;;;;;;24.25;13.23;;;0.20;56.70;;;;;;5075039;28;20673;-78
2024/01/16 08:32:12;;;;;;;25.08;13.32;;;0.30;56.40;;;;;;5074964;28;20658;-79
2024/01/16 08:34:39;;;;;;;21.60;12.35;;;0.40;56.00;;;;;;5074919;28;20245;-79
2024/01/16 08:37:06;;;;;;;19.17;12.05;;;0.50;55.20;;;;;;5074887;28;20221;-79
2024/01/16 08:39:34;;;;;;;20.60;10.43;;;0.60;55.10;;;;;;5075163;28;20186;-79
2024/01/16 08:42:02;;;;;;;12.50;9.00;;;0.70;54.90;;;;;;5075089;28;20186;-79
2024/01/16 08:44:29;;;;;;;14.20;9.23;;;0.90;54.80;;;;;;5075121;28;20281;-79
2024/01/16 08:46:57;;;;;;;14.52;9.07;;;1.00;54.60;;;;;;5074654;28;20226;-79
2024/01/16 08:49:26;;;;;;;13.05;8.15;;;1.10;54.50;;;;;;5074979;28;20190;-79
2024/01/16 08:51:53;;;;;;;19.92;9.35;;;1.30;54.40;;;;;;5075010;28;20571;-79
2024/01/16 08:54:25;;;;;;;13.45;7.25;;;1.60;54.30;;;;;;5074417;28;20202;-79
2024/01/16 08:56:52;;;;;;;12.80;8.10;;;1.70;53.80;;;;;;5074869;28;20174;-79
2024/01/16 08:59:19;;;;;;;13.38;8.73;;;2.00;53.10;;;;;;5074531;28;20190;-79
2024/01/16 09:01:47;;;;;;;16.35;7.72;;;2.20;52.80;;;;;;5074576;28;20273;-79
2024/01/16 09:04:14;;;;;;;14.05;8.82;;;2.30;51.80;;;;;;5073450;28;20708;-79
2024/01/16 09:06:42;;;;;;;13.25;8.60;;;2.40;51.30;;;;;;5074451;28;20217;-80
2024/01/16 09:09:09;;;;;;;16.00;10.80;;;2.40;50.00;;;;;;5074124;28;20222;-79
2024/01/16 09:11:36;;;;;;;13.57;8.93;;;2.50;49.80;;;;;;5074459;28;20217;-79
2024/01/16 09:14:05;;;;;;;12.90;9.23;;;2.50;49.80;;;;;;5074254;28;20705;-79
2024/01/16 09:16:32;;;;;;;17.02;10.57;;;2.60;49.90;;;;;;5074326;28;20283;-79
2024/01/16 09:19:01;;;;;;;14.43;9.80;;;2.60;49.40;;;;;;5073950;28;20526;-79
2024/01/16 09:21:28;;;;;;;14.82;10.32;;;2.60;49.60;;;;;;5074396;28;20198;-79
2024/01/16 09:23:56;;;;;;;18.45;11.65;;;2.50;50.10;;;;;;5073842;28;20573;-79
2024/01/16 09:26:23;;;;;;;20.10;12.85;;;2.60;50.80;;;;;;5074212;28;20293;-79
2024/01/16 09:28:50;;;;;;;19.15;9.07;;;2.80;51.30;;;;;;5074294;28;20269;-79
2024/01/16 09:31:18;;;;;;;18.30;10.77;;;3.00;50.70;;;;;;5074032;28;20225;-79
2024/01/16 09:33:45;;;;;;;17.38;11.07;;;3.00;50.70;;;;;;5073550;28;20655;-79
2024/01/16 09:36:12;;;;;;;14.38;11.00;;;3.20;51.20;;;;;;5074192;28;20182;-79
2024/01/16 09:38:39;;;;;;;20.50;12.35;;;3.40;51.50;;;;;;5073772;28;20601;-79
2024/01/16 09:41:07;;;;;;;18.15;11.13;;;3.60;51.10;;;;;;5073930;28;20277;-79
2024/01/16 09:43:35;;;;;;;16.92;12.18;;;3.70;50.30;;;;;;5073447;28;20637;-79
2024/01/16 09:46:10;;;;;;;19.42;11.95;;;3.90;50.10;;;;;;5072980;28;20646;-79
2024/01/16 09:48:37;;;;;;;20.80;13.70;;;4.20;50.20;;;;;;5073310;28;20173;-79
2024/01/16 09:51:05;;;;;;;27.48;15.90;;;4.40;49.40;;;;;;5073506;28;20198;-80
2024/01/16 09:53:33;;;;;;;20.67;14.27;;;4.70;49.20;;;;;;5073745;28;20190;-79
2024/01/16 09:56:04;;;;;;;21.70;14.88;;;4.80;48.30;;;;;;5073508;28;20245;-79
2024/01/16 09:58:37;;;;;;;22.10;13.57;;;4.70;48.30;;;;;;5073464;28;20185;-80
2024/01/16 10:01:05;;;;;;;19.63;13.15;;;4.80;48.60;;;;;;5073630;28;20209;-79
2024/01/16 10:03:35;;;;;;;22.58;12.98;;;4.70;48.60;;;;;;5073001;28;20186;-79
2024/01/16 10:06:04;;;;;;;19.23;12.32;;;4.70;48.20;;;;;;5073641;28;20228;-79
2024/01/16 10:08:31;;;;;;;16.50;11.07;;;4.50;48.00;;;;;;5073477;28;20268;-80
2024/01/16 10:10:58;;;;;;;17.13;10.85;;;4.40;48.20;;;;;;5073430;28;20265;-79
2024/01/16 10:13:26;;;;;;;13.63;9.63;;;4.30;48.40;;;;;;5073493;28;20248;-80
2024/01/16 10:15:55;;;;;;;16.65;10.38;;;4.20;47.90;;;;;;5073134;28;20238;-80
2024/01/16 10:18:26;;;;;;;20.02;11.57;;;4.00;48.10;;;;;;5073069;28;20197;-79
2024/01/16 10:20:54;;;;;;;14.80;10.27;;;3.80;48.30;;;;;;5065918;28;20217;-79
2024/01/16 10:23:24;;;;;;;14.43;11.32;;;3.70;48.90;;;;;;5073469;28;20248;-79
2024/01/16 10:26:09;;;;;;;15.15;9.95;;;3.70;49.80;;;;;;5065734;28;20616;-80
2024/01/16 10:28:37;;;;;;;11.98;9.25;;;3.70;50.20;;;;;;5073382;28;20277;-78
2024/01/16 10:31:06;;;;;;;14.98;7.97;;;3.70;50.70;;;;;;5073030;28;20182;-79
2024/01/16 10:33:34;;;;;;;12.55;8.50;;;3.80;50.50;;;;;;5072943;28;20182;-79
2024/01/16 10:36:10;;;;;;;13.30;8.80;;;3.90;50.50;;;;;;5073210;28;20248;-79
2024/01/16 10:38:39;;;;;;;13.80;9.38;;;4.00;50.80;;;;;;5073320;28;20178;-79
2024/01/16 10:41:07;;;;;;;16.48;10.82;;;4.20;50.30;;;;;;5073264;28;20251;-79
2024/01/16 10:43:34;;;;;;;14.10;8.77;;;4.30;49.80;;;;;;5073172;28;20299;-79
2024/01/16 10:46:11;;;;;;;14.90;9.80;;;4.30;49.50;;;;;;5073045;28;20276;-79
2024/01/16 10:48:39;;;;;;;13.20;9.45;;;4.30;49.40;;;;;;5073467;28;20174;-79
2024/01/16 10:51:08;;;;;;;14.32;9.30;;;4.20;49.60;;;;;;5073112;28;20235;-79
2024/01/16 10:53:35;;;;;;;15.82;9.90;;;4.30;50.00;;;;;;5073077;28;20194;-79
2024/01/16 10:56:04;;;;;;;12.23;8.85;;;4.30;50.10;;;;;;5072944;28;20305;-79
2024/01/16 10:58:32;;;;;;;16.70;11.48;;;4.40;49.70;;;;;;5073108;28;20190;-79
2024/01/16 11:01:04;;;;;;;16.80;10.82;;;4.50;49.30;;;;;;5072969;28;20185;-79
2024/01/16 11:03:37;;;;;;;16.10;12.00;;;4.60;48.70;;;;;;5072988;28;20182;-78
2024/01/16 11:06:08;;;;;;;20.00;13.63;;;4.60;48.00;;;;;;5073267;28;20174;-78
2024/01/16 11:08:37;;;;;;;17.67;11.63;;;4.50;47.90;;;;;;5073041;28;20175;-78
2024/01/16 11:11:05;;;;;;;18.85;9.68;;;4.50;48.80;;;;;;5072547;28;20266;-78
2024/01/16 11:13:34;;;;;;;10.93;7.43;;;4.60;49.50;;;;;;5072534;28;20251;-79
2024/01/16 11:16:03;;;;;;;18.02;9.48;;;4.70;49.20;;;;;;5072632;28;20244;-78
2024/01/16 11:18:32;;;;;;;14.40;9.13;;;4.90;49.30;;;;;;5072790;28;20244;-78
2024/01/16 11:21:02;;;;;;;17.88;9.10;;;5.10;48.80;;;;;;5072787;28;20218;-78
2024/01/16 11:23:29;;;;;;;13.93;9.27;;;5.20;48.30;;;;;;5072515;28;20581;-78
2024/01/16 11:25:56;;;;;;;13.63;8.48;;;5.40;48.60;;;;;;5072737;28;20379;-78
2024/01/16 11:28:29;;;;;;;15.20;9.15;;;5.50;48.20;;;;;;5074574;28;20273;-78
2024/01/16 11:30:56;;;;;;;14.02;8.38;;;5.80;47.60;;;;;;5076482;28;20224;-78
2024/01/16 11:33:46;;;;;;;13.13;8.70;;;6.10;47.70;;;;;;5076078;28;20317;-77
2024/01/16 11:36:48;;;;;;;13.48;8.65;;;6.70;47.30;;;;;;5075962;28;20292;-78
2024/01/16 11:39:19;;;;;;;15.30;9.70;;;7.20;46.10;;;;;;5071602;28;20632;-78
2024/01/16 11:41:51;;;;;;;20.08;9.45;;;7.50;44.50;;;;;;5076736;28;20185;-78
2024/01/16 11:44:43;;;;;;;13.18;9.82;;;7.60;44.40;;;;;;5075963;28;20196;-78
2024/01/16 11:47:10;;;;;;;11.80;8.10;;;7.50;43.80;;;;;;5075856;28;20182;-78
2024/01/16 11:49:37;;;;;;;9.77;7.28;;;7.40;43.10;;;;;;5075775;28;20257;-78
2024/01/16 11:52:06;;;;;;;11.70;7.80;;;7.40;43.10;;;;;;5076022;28;20214;-78
2024/01/16 11:54:34;;;;;;;9.25;6.30;;;7.50;43.00;;;;;;5075727;28;20708;-78
2024/01/16 11:57:25;;;;;;;80.35;32.00;;;7.60;42.10;;;;;;5075921;28;20196;-78
2024/01/16 12:00:07;;;;;;;19.45;10.27;;;7.90;41.50;;;;;;5068267;28;20244;-78
2024/01/16 12:02:48;;;;;;;11.27;6.88;;;8.10;41.20;;;;;;5076069;28;20202;-78
2024/01/16 12:05:15;;;;;;;9.52;5.90;;;8.10;40.50;;;;;;5075988;28;20183;-78
2024/01/16 12:07:52;;;;;;;8.02;5.60;;;8.10;40.30;;;;;;5075434;28;20593;-78
2024/01/16 12:10:20;;;;;;;6.82;4.40;;;8.20;39.40;;;;;;5075612;28;20174;-78
2024/01/16 12:12:47;;;;;;;93.28;33.78;;;8.20;39.20;;;;;;5075740;28;20305;-79
2024/01/16 12:15:17;;;;;;;10.43;7.28;;;8.30;39.30;;;;;;5075152;28;20316;-78
2024/01/16 12:17:59;;;;;;;8.85;6.05;;;8.40;39.60;;;;;;5075485;28;20502;-78
2024/01/16 12:20:28;;;;;;;7.68;5.78;;;8.30;39.40;;;;;;5072670;28;20277;-79
2024/01/16 12:22:58;;;;;;;8.18;5.20;;;8.20;39.20;;;;;;5075563;28;20194;-79
2024/01/16 12:25:25;;;;;;;7.65;5.00;;;8.20;38.70;;;;;;5075185;28;20607;-79
2024/01/16 12:27:57;;;;;;;8.55;4.65;;;8.10;38.00;;;;;;5075420;28;20272;-78
2024/01/16 12:30:26;;;;;;;14.43;7.97;;;8.00;37.70;;;;;;5075512;28;20564;-79
2024/01/16 12:32:54;;;;;;;6.35;4.22;;;7.90;37.70;;;;;;5075346;28;20639;-78
2024/01/16 12:35:22;;;;;;;5.53;4.18;;;7.90;37.10;;;;;;5075370;28;20213;-78
2024/01/16 12:38:01;;;;;;;8.68;4.95;;;8.00;36.80;;;;;;5074942;28;20247;-78
2024/01/16 12:40:28;;;;;;;6.35;4.22;;;8.20;36.90;;;;;;5074053;28;20228;-78
2024/01/16 12:42:56;;;;;;;9.25;5.07;;;8.40;36.60;;;;;;5075378;28;20310;-78
2024/01/16 12:45:23;;;;;;;8.52;6.00;;;8.40;36.40;;;;;;5074861;28;20706;-78
2024/01/16 12:47:54;;;;;;;7.82;5.72;;;8.40;36.10;;;;;;5074649;28;20186;-78
2024/01/16 12:50:25;;;;;;;6.75;4.97;;;8.20;37.10;;;;;;5075044;28;20505;-78
2024/01/16 12:53:04;;;;;;;8.30;5.50;;;8.20;36.70;;;;;;5075247;28;20174;-78
2024/01/16 12:55:31;;;;;;;8.02;5.05;;;8.10;36.70;;;;;;5075004;28;20194;-78
2024/01/16 12:58:18;;;;;;;6.97;5.22;;;8.10;37.10;;;;;;5074690;28;20285;-78
2024/01/16 13:00:45;;;;;;;7.13;5.35;;;8.00;36.30;;;;;;5074580;28;20210;-78